Time;durP1;ratioP1;P1;durP2;ratioP2;P2;SDS_P1;SDS_P2;PMS_P1;PMS_P2;Temp;Humidity;BMP_temperature;BMP_pressure;BME280_temperature;BME280_humidity;BME280_pressure;Samples;Min_cycle;Max_cycle;Signal;HPM_P1;HPM_P2
2022/06/10 00:00:43;;;;;;;3.28;3.00;;;;;;;22.67;63.39;93831.41;5116065;27;20223;-76
2022/06/10 00:03:12;;;;;;;3.53;3.22;;;;;;;22.90;63.66;93866.25;5096073;28;20201;-77
2022/06/10 00:05:42;;;;;;;3.85;2.90;;;;;;;22.88;63.62;93869.03;5091258;28;20277;-79
2022/06/10 00:08:13;;;;;;;3.25;2.92;;;;;;;22.89;63.68;93865.44;5127986;27;20351;-76
2022/06/10 00:10:40;;;;;;;4.40;3.20;;;;;;;22.87;63.53;93870.06;5130349;27;20646;-80
2022/06/10 00:13:08;;;;;;;3.28;3.05;;;;;;;22.88;63.55;93860.44;5132003;27;20222;-78
2022/06/10 00:15:35;;;;;;;4.35;3.20;;;;;;;22.84;63.56;93856.72;5132363;27;20185;-80
2022/06/10 00:18:02;;;;;;;3.42;3.13;;;;;;;22.84;63.52;93851.50;5131530;27;20200;-77
2022/06/10 00:20:32;;;;;;;4.20;3.35;;;;;;;22.83;63.52;93855.91;5132240;27;20184;-77
2022/06/10 00:23:00;;;;;;;3.40;3.08;;;;;;;22.85;63.76;93864.31;5130800;27;20188;-79
2022/06/10 00:25:28;;;;;;;4.28;3.03;;;;;;;22.85;63.78;93861.72;5131713;27;20199;-79
2022/06/10 00:27:55;;;;;;;3.45;3.08;;;;;;;22.86;63.78;93854.69;5131258;27;20198;-76
2022/06/10 00:30:25;;;;;;;4.60;3.45;;;;;;;22.80;63.72;93840.75;5114573;27;20181;-76
2022/06/10 00:32:52;;;;;;;4.15;3.33;;;;;;;22.85;63.91;93850.50;5111020;28;20196;-76
2022/06/10 00:35:19;;;;;;;6.32;3.42;;;;;;;22.82;63.94;93843.13;5111010;28;20189;-79
2022/06/10 00:37:47;;;;;;;5.28;3.42;;;;;;;22.80;63.68;93845.97;5129365;27;20659;-77
2022/06/10 00:40:17;;;;;;;3.30;3.00;;;;;;;22.82;63.93;93843.13;5131670;27;20187;-78
2022/06/10 00:42:45;;;;;;;3.75;3.20;;;;;;;22.81;63.86;93844.94;5131366;27;20188;-79
2022/06/10 00:45:51;;;;;;;3.20;3.00;;;;;;;22.81;63.86;93839.72;5131433;27;20193;-82
2022/06/10 00:48:22;;;;;;;4.40;3.10;;;;;;;22.77;63.97;93834.19;5124733;27;20220;-77
2022/06/10 00:50:50;;;;;;;5.43;3.47;;;;;;;22.76;63.97;93837.03;5110863;28;20578;-76
2022/06/10 00:53:22;;;;;;;3.35;2.83;;;;;;;22.70;64.06;93823.09;5110462;28;20185;-78
2022/06/10 00:55:53;;;;;;;2.95;2.70;;;;;;;22.76;64.07;93840.44;5111173;28;20185;-77
2022/06/10 00:58:32;;;;;;;3.78;3.40;;;;;;;22.75;63.91;93838.88;5111100;28;20221;-76
2022/06/10 01:01:01;;;;;;;6.05;3.58;;;;;;;22.73;64.01;93832.28;5131052;28;20191;-85
2022/06/10 01:03:28;;;;;;;5.18;2.63;;;;;;;22.74;63.94;93839.88;5137841;28;20188;-78
2022/06/10 01:05:55;;;;;;;3.10;2.80;;;;;;;22.72;63.81;93836.72;5149260;28;20176;-77
2022/06/10 01:08:24;;;;;;;3.75;3.08;;;;;;;22.66;64.19;93829.81;5149829;28;20184;-78
2022/06/10 01:11:05;;;;;;;4.65;2.60;;;;;;;22.68;64.27;93842.63;5152027;28;20195;-78
2022/06/10 01:13:42;;;;;;;4.20;3.00;;;;;;;22.65;64.51;93837.88;5157623;27;20192;-77
2022/06/10 01:16:22;;;;;;;4.57;3.22;;;;;;;22.66;64.56;93834.22;5158894;27;20180;-80
2022/06/10 01:18:59;;;;;;;4.40;2.97;;;;;;;22.63;64.65;93835.50;5149045;27;20314;-88
2022/06/10 01:22:01;;;;;;;3.50;3.20;;;;;;;22.62;64.83;93828.69;5135945;27;20195;-86
2022/06/10 01:25:03;;;;;;;5.00;3.25;;;;;;;22.64;64.62;93834.47;5135299;27;20175;-86
2022/06/10 01:28:00;;;;;;;3.50;3.20;;;;;;;22.62;64.51;93840.94;5137002;27;20554;-86
2022/06/10 01:31:03;;;;;;;3.20;2.90;;;;;;;22.62;64.73;93839.13;5117807;27;20192;-84
2022/06/10 01:33:44;;;;;;;3.63;3.33;;;;;;;22.61;64.45;93842.75;5116754;28;21082;-84
2022/06/10 01:36:21;;;;;;;3.53;2.80;;;;;;;22.59;64.60;93841.44;5116075;28;20648;-86
2022/06/10 01:38:57;;;;;;;4.18;3.08;;;;;;;22.59;64.63;93844.03;5114944;28;20213;-86
2022/06/10 01:41:31;;;;;;;5.25;3.03;;;;;;;22.58;64.90;93839.81;5119373;27;20188;-85
2022/06/10 01:44:03;;;;;;;3.00;2.75;;;;;;;22.58;64.90;93847.63;5135791;27;20188;-85
2022/06/10 01:46:35;;;;;;;3.50;3.20;;;;;;;22.59;64.87;93846.63;5135233;27;20195;-82
2022/06/10 01:49:11;;;;;;;5.65;3.00;;;;;;;22.59;64.83;93841.44;5134407;27;20302;-84
2022/06/10 01:51:46;;;;;;;3.20;2.90;;;;;;;22.58;64.59;93843.22;5115156;27;20180;-86
2022/06/10 01:54:23;;;;;;;6.25;3.53;;;;;;;22.58;64.75;93842.44;5110456;28;20181;-83
2022/06/10 01:56:56;;;;;;;3.47;3.17;;;;;;;22.57;64.79;93846.06;5114236;28;20238;-80
2022/06/10 01:59:28;;;;;;;3.00;2.80;;;;;;;22.55;64.88;93846.31;5114473;28;20261;-84
2022/06/10 02:02:03;;;;;;;3.60;3.30;;;;;;;22.52;64.75;93850.16;5114222;28;20282;-85
2022/06/10 02:04:33;;;;;;;4.07;3.05;;;;;;;22.54;64.88;93848.13;5116215;27;20188;-85
2022/06/10 02:07:05;;;;;;;4.72;3.13;;;;;;;22.53;64.84;93854.34;5115841;28;20182;-87
2022/06/10 02:09:38;;;;;;;4.93;3.00;;;;;;;22.54;64.88;93853.34;5120233;28;20193;-86
2022/06/10 02:12:12;;;;;;;3.35;3.10;;;;;;;22.49;64.87;93842.00;5117509;28;20188;-83
2022/06/10 02:14:43;;;;;;;3.50;3.10;;;;;;;22.53;65.22;93843.91;5115777;27;20192;-85
2022/06/10 02:17:15;;;;;;;5.85;3.25;;;;;;;22.53;65.12;93854.34;5113809;28;20189;-82
2022/06/10 02:19:46;;;;;;;3.35;3.05;;;;;;;22.53;65.15;93859.53;5093905;28;20217;-85
2022/06/10 02:22:20;;;;;;;3.08;2.88;;;;;;;22.52;65.23;93851.97;5111814;28;20188;-87
2022/06/10 02:24:51;;;;;;;3.50;3.17;;;;;;;22.52;65.40;93857.19;5114256;27;20177;-84
2022/06/10 02:27:22;;;;;;;2.85;2.65;;;;;;;22.51;65.65;93858.22;5113568;28;20306;-87
2022/06/10 02:29:56;;;;;;;3.42;3.13;;;;;;;22.51;65.47;93851.19;5115442;28;20290;-85
2022/06/10 02:32:25;;;;;;;4.38;2.97;;;;;;;22.51;65.39;93858.22;5113953;28;20285;-83
2022/06/10 02:34:52;;;;;;;3.30;3.03;;;;;;;22.51;65.30;93861.59;5114733;27;20602;-80
2022/06/10 02:37:25;;;;;;;3.42;3.13;;;;;;;22.52;65.61;93862.41;5113354;28;20189;-83
2022/06/10 02:39:59;;;;;;;3.13;2.92;;;;;;;22.51;65.44;93866.81;5120377;27;20224;-78
2022/06/10 02:42:31;;;;;;;3.55;3.25;;;;;;;22.51;65.56;93864.22;5133368;27;20192;-77
2022/06/10 02:45:09;;;;;;;6.75;3.28;;;;;;;22.49;65.59;93868.84;5133434;27;20188;-78
2022/06/10 02:47:44;;;;;;;3.47;3.17;;;;;;;22.49;65.71;93868.06;5129683;27;20216;-76
2022/06/10 02:50:13;;;;;;;3.47;3.20;;;;;;;22.48;65.53;93871.69;5111127;28;20185;-78
2022/06/10 02:52:41;;;;;;;3.72;3.42;;;;;;;22.46;65.60;93869.34;5112286;28;20653;-77
2022/06/10 02:55:13;;;;;;;3.28;3.08;;;;;;;22.23;65.53;93832.91;5113007;28;20184;-77
2022/06/10 03:03:27;;;;;;;5.15;3.40;;;;;;;22.46;65.82;93863.34;5092282;28;20326;-81
2022/06/10 03:06:01;;;;;;;3.63;3.30;;;;;;;22.46;65.69;93874.53;5091889;28;20189;-79
2022/06/10 03:08:33;;;;;;;3.65;3.35;;;;;;;22.40;65.64;93861.63;5092211;28;20193;-78
2022/06/10 03:11:12;;;;;;;3.50;3.20;;;;;;;22.45;65.81;93875.56;5092537;28;20186;-78
2022/06/10 03:13:50;;;;;;;3.47;3.05;;;;;;;22.47;65.90;93877.94;5071499;28;20201;-77
2022/06/10 03:16:33;;;;;;;3.95;3.15;;;;;;;22.45;65.70;93874.75;5083417;28;20185;-77
2022/06/10 03:19:09;;;;;;;5.47;3.15;;;;;;;22.45;65.70;93880.78;5092075;28;20290;-79
2022/06/10 03:21:50;;;;;;;3.85;3.13;;;;;;;22.19;65.79;93839.59;5093960;28;20681;-78
2022/06/10 03:24:27;;;;;;;8.43;3.40;;;;;;;22.45;65.97;93882.56;5112376;28;20193;-82
2022/06/10 03:27:01;;;;;;;3.50;3.10;;;;;;;22.46;66.10;93886.78;5112179;28;20777;-78
2022/06/10 03:29:40;;;;;;;3.63;3.05;;;;;;;22.44;65.98;93878.38;5111931;28;20188;-79
2022/06/10 03:32:15;;;;;;;2.97;2.78;;;;;;;22.35;66.17;93867.53;5074444;28;20273;-79
2022/06/10 03:34:47;;;;;;;3.10;2.80;;;;;;;22.43;66.07;93882.81;5091738;28;20185;-79
2022/06/10 03:37:17;;;;;;;3.47;3.17;;;;;;;22.46;66.10;93878.97;5091222;28;20193;-79
2022/06/10 03:39:51;;;;;;;3.25;3.05;;;;;;;22.45;66.20;93883.38;5091622;28;20240;-81
2022/06/10 03:42:20;;;;;;;3.03;2.80;;;;;;;22.46;66.13;93887.56;5091694;28;20190;-78
2022/06/10 03:44:50;;;;;;;4.53;3.35;;;;;;;22.44;66.16;93879.19;5092848;28;20196;-77
2022/06/10 03:47:25;;;;;;;5.40;3.10;;;;;;;22.47;66.49;93875.34;5092048;28;20185;-79
2022/06/10 03:49:57;;;;;;;3.20;2.90;;;;;;;22.49;66.45;93886.28;5112274;28;20203;-80
2022/06/10 03:52:27;;;;;;;3.47;3.25;;;;;;;22.46;66.51;93881.56;5131021;27;20200;-80
2022/06/10 03:54:54;;;;;;;3.60;3.30;;;;;;;22.38;66.53;93879.31;5130789;27;20279;-80
2022/06/10 03:57:21;;;;;;;3.50;3.20;;;;;;;22.50;66.49;93899.13;5132847;27;20192;-86
2022/06/10 03:59:48;;;;;;;5.45;3.38;;;;;;;22.51;66.53;93890.28;5132523;27;20214;-85
2022/06/10 04:02:16;;;;;;;3.47;3.25;;;;;;;22.50;66.54;93890.50;5133262;27;20188;-86
2022/06/10 04:04:44;;;;;;;3.50;3.20;;;;;;;22.53;66.56;93893.41;5131913;27;20181;-87
2022/06/10 04:07:15;;;;;;;3.75;3.42;;;;;;;22.54;66.63;93897.63;5134463;27;20181;-86
2022/06/10 04:09:42;;;;;;;3.85;3.38;;;;;;;22.51;66.69;93889.47;5133484;27;20718;-88
2022/06/10 04:12:09;;;;;;;3.58;3.28;;;;;;;22.56;66.70;93900.00;5133178;27;20241;-85
2022/06/10 04:14:37;;;;;;;7.63;3.50;;;;;;;22.58;66.66;93904.97;5132277;27;20276;-81
2022/06/10 04:17:04;;;;;;;4.05;3.65;;;;;;;22.54;66.78;93899.44;5132881;27;20180;-87
2022/06/10 04:19:31;;;;;;;3.80;3.55;;;;;;;22.52;66.88;93886.63;5134250;27;20234;-82
2022/06/10 04:21:58;;;;;;;4.13;3.00;;;;;;;22.53;66.73;93885.59;5117509;27;20201;-87
2022/06/10 04:24:27;;;;;;;3.75;3.45;;;;;;;22.57;66.90;93887.75;5113862;28;20192;-87
2022/06/10 04:26:54;;;;;;;3.92;3.47;;;;;;;22.62;67.06;93890.44;5136671;27;20599;-86
2022/06/10 04:29:21;;;;;;;3.72;3.10;;;;;;;22.63;66.80;93892.84;5122078;27;20584;-87
2022/06/10 04:31:48;;;;;;;5.72;3.38;;;;;;;22.68;67.08;93897.38;5136202;27;20196;-86
2022/06/10 04:34:15;;;;;;;4.18;3.78;;;;;;;22.71;66.98;93896.88;5154535;27;20188;-83
2022/06/10 04:36:43;;;;;;;5.22;3.58;;;;;;;22.64;66.88;93881.41;5156907;27;20232;-80
2022/06/10 04:39:10;;;;;;;4.80;3.45;;;;;;;22.74;66.82;93904.25;5143394;27;20223;-85
2022/06/10 04:41:39;;;;;;;3.88;3.58;;;;;;;22.76;67.00;93910.03;5108183;27;20285;-88
2022/06/10 04:44:06;;;;;;;4.18;3.88;;;;;;;22.75;67.04;93901.44;5110313;27;20204;-87
2022/06/10 04:46:36;;;;;;;4.65;4.25;;;;;;;22.82;66.89;93910.91;5111673;27;20272;-87
2022/06/10 04:49:03;;;;;;;4.35;3.80;;;;;;;22.66;67.16;93881.16;5111214;28;20285;-82
2022/06/10 04:51:30;;;;;;;5.40;3.50;;;;;;;22.95;74.09;93905.44;5109808;28;20209;-77
2022/06/10 04:53:57;;;;;;;9.98;3.03;;;;;;;23.16;77.00;93912.63;5109715;28;20192;-76
2022/06/10 04:56:24;;;;;;;8.63;3.47;;;;;;;23.36;76.15;93917.41;5109939;28;20197;-77
2022/06/10 04:58:52;;;;;;;17.25;3.28;;;;;;;23.57;75.80;93918.50;5109409;28;20185;-81
2022/06/10 05:01:19;;;;;;;15.52;3.42;;;;;;;23.73;74.94;93909.91;5106183;28;20280;-76
2022/06/10 05:03:46;;;;;;;5.93;3.58;;;;;;;23.92;73.96;93914.88;5089774;28;20186;-79
2022/06/10 05:06:13;;;;;;;9.90;3.35;;;;;;;24.06;73.00;93916.13;5098447;28;20200;-76
2022/06/10 05:08:41;;;;;;;13.02;3.80;;;;;;;24.20;73.01;93919.19;5093466;28;20587;-77
2022/06/10 05:11:08;;;;;;;10.07;3.95;;;;;;;24.33;72.55;93921.47;5096045;28;20192;-77
2022/06/10 05:13:36;;;;;;;3.80;3.10;;;;;;;24.45;71.54;93924.78;5110071;28;20203;-77
2022/06/10 05:16:06;;;;;;;10.20;3.97;;;;;;;24.58;71.62;93922.84;5116196;28;20724;-77
2022/06/10 05:18:33;;;;;;;6.10;3.28;;;;;;;24.72;71.14;93929.28;5109511;28;20215;-75
2022/06/10 05:21:04;;;;;;;7.97;3.55;;;;;;;24.84;70.53;93929.97;5108858;28;20303;-77
2022/06/10 05:23:31;;;;;;;7.40;3.25;;;;;;;24.92;69.04;93926.91;5109843;28;20192;-78
2022/06/10 05:25:59;;;;;;;8.13;3.60;;;;;;;24.96;68.03;93938.47;5108950;28;20242;-76
2022/06/10 05:28:26;;;;;;;7.25;4.25;;;;;;;24.96;66.91;93932.44;5109606;28;20567;-74
2022/06/10 05:30:53;;;;;;;5.75;3.35;;;;;;;24.89;66.13;93926.59;5109147;28;20228;-76
2022/06/10 05:33:22;;;;;;;6.13;3.38;;;;;;;24.86;65.29;93927.88;5109256;28;20207;-76
2022/06/10 05:35:48;;;;;;;5.32;3.70;;;;;;;24.82;64.95;93929.41;5107801;28;20197;-75
2022/06/10 05:38:16;;;;;;;7.72;3.83;;;;;;;24.81;64.78;93935.66;5108561;28;20189;-77
2022/06/10 05:40:43;;;;;;;5.40;3.60;;;;;;;24.80;64.57;93936.72;5108912;28;20722;-77
2022/06/10 05:43:10;;;;;;;6.15;3.85;;;;;;;24.78;64.11;93936.97;5109049;28;20185;-77
2022/06/10 05:45:37;;;;;;;5.03;3.47;;;;;;;24.78;64.12;93936.97;5109077;28;20555;-77
2022/06/10 05:48:04;;;;;;;5.25;3.60;;;;;;;24.80;63.78;93935.91;5108778;28;20224;-77
2022/06/10 05:50:36;;;;;;;4.15;3.70;;;;;;;24.81;64.03;93937.50;5108733;28;20196;-75
2022/06/10 05:53:06;;;;;;;4.00;3.70;;;;;;;24.85;63.95;93931.53;5106319;28;20201;-75
2022/06/10 05:55:34;;;;;;;4.25;3.85;;;;;;;24.89;63.71;93935.25;5106853;28;20193;-75
2022/06/10 05:58:01;;;;;;;4.88;4.00;;;;;;;24.97;64.00;93937.44;5108655;28;20675;-77
2022/06/10 06:00:30;;;;;;;5.82;3.92;;;;;;;25.02;63.79;93931.47;5111499;28;20224;-75
2022/06/10 06:02:58;;;;;;;6.55;3.42;;;;;;;25.08;63.20;93946.19;5111545;28;20197;-75
2022/06/10 06:05:26;;;;;;;6.82;3.70;;;;;;;25.13;63.28;93948.06;5112550;28;20253;-75
2022/06/10 06:07:54;;;;;;;5.47;3.97;;;;;;;25.18;63.34;93946.31;5112778;28;20182;-78
2022/06/10 06:10:25;;;;;;;7.38;4.05;;;;;;;25.21;63.12;93945.81;5112434;28;20676;-75
2022/06/10 06:12:51;;;;;;;4.63;4.20;;;;;;;25.21;62.68;93937.94;5111968;28;20644;-76
2022/06/10 06:15:19;;;;;;;4.53;4.13;;;;;;;25.21;62.57;93935.34;5112131;28;20701;-77
2022/06/10 06:17:45;;;;;;;4.63;4.13;;;;;;;25.21;62.79;93943.19;5111770;28;20199;-77
2022/06/10 06:20:15;;;;;;;5.30;4.63;;;;;;;25.22;62.75;93944.00;5112474;28;20209;-75
2022/06/10 06:22:42;;;;;;;4.38;3.90;;;;;;;25.20;62.28;93954.69;5112251;28;20207;-77
2022/06/10 06:25:17;;;;;;;4.40;4.00;;;;;;;25.19;62.62;93958.34;5112054;28;20188;-75
2022/06/10 06:27:44;;;;;;;5.43;4.13;;;;;;;25.17;62.64;93964.84;5111890;27;20182;-76
2022/06/10 06:30:17;;;;;;;7.32;5.05;;;;;;;25.15;62.89;93965.13;5112044;28;20197;-76
2022/06/10 06:32:44;;;;;;;6.35;4.38;;;;;;;25.13;62.90;93956.72;5114291;27;20620;-74
2022/06/10 06:35:11;;;;;;;6.55;5.30;;;;;;;25.10;62.86;93956.44;5112318;28;20204;-75
2022/06/10 06:37:39;;;;;;;5.25;4.82;;;;;;;25.07;62.93;93960.28;5112419;28;20188;-78
2022/06/10 06:40:06;;;;;;;7.60;5.35;;;;;;;25.06;62.72;93957.94;5111695;28;20216;-77
2022/06/10 06:42:36;;;;;;;5.70;3.83;;;;;;;25.01;62.80;93956.03;5112503;28;20212;-78
2022/06/10 06:45:04;;;;;;;5.45;4.63;;;;;;;25.02;62.80;93961.03;5112249;28;20192;-76
2022/06/10 06:47:31;;;;;;;5.88;4.82;;;;;;;25.01;62.81;93969.91;5111772;28;20177;-77
2022/06/10 06:49:58;;;;;;;6.40;5.20;;;;;;;25.00;62.76;93972.78;5111959;28;20200;-76
2022/06/10 06:52:25;;;;;;;4.88;4.40;;;;;;;25.00;62.87;93967.56;5110296;28;20208;-76
2022/06/10 06:54:52;;;;;;;5.13;4.63;;;;;;;24.99;62.85;93974.59;5111586;28;21042;-75
2022/06/10 06:57:20;;;;;;;4.75;4.18;;;;;;;24.98;62.96;93965.16;5111977;27;20192;-75
2022/06/10 06:59:48;;;;;;;5.55;4.75;;;;;;;24.95;63.00;93968.25;5111545;28;20204;-75
2022/06/10 07:02:15;;;;;;;5.32;4.55;;;;;;;24.94;63.17;93968.50;5114031;27;20572;-75
2022/06/10 07:04:42;;;;;;;5.15;4.05;;;;;;;24.93;62.87;93964.31;5111143;28;20189;-78
2022/06/10 07:07:09;;;;;;;5.32;4.82;;;;;;;24.93;63.09;93956.47;5112048;27;20575;-77
2022/06/10 07:09:35;;;;;;;5.43;4.47;;;;;;;24.94;63.02;93965.91;5111025;28;20661;-78
2022/06/10 07:12:02;;;;;;;4.95;4.45;;;;;;;24.96;62.70;93958.59;5111502;28;20267;-76
2022/06/10 07:14:29;;;;;;;4.28;3.90;;;;;;;24.96;62.64;93956.78;5111830;28;20193;-77
2022/06/10 07:16:57;;;;;;;5.38;3.97;;;;;;;25.00;62.65;93960.50;5109095;27;20185;-76
2022/06/10 07:19:24;;;;;;;4.18;3.88;;;;;;;25.02;62.56;93968.09;5111421;28;20608;-79
2022/06/10 07:21:51;;;;;;;5.35;4.75;;;;;;;25.05;62.81;93957.13;5108997;27;20218;-77
2022/06/10 07:24:18;;;;;;;5.95;4.20;;;;;;;25.06;62.51;93963.16;5113386;27;20230;-75
2022/06/10 07:26:45;;;;;;;4.55;4.15;;;;;;;25.07;62.58;93962.91;5110777;28;20672;-75
2022/06/10 07:29:11;;;;;;;4.57;4.18;;;;;;;25.09;62.41;93963.50;5111545;27;20286;-75
2022/06/10 07:31:41;;;;;;;5.80;4.70;;;;;;;25.05;62.34;93956.34;5110470;28;20688;-77
2022/06/10 07:34:10;;;;;;;7.65;4.97;;;;;;;25.14;62.44;93971.38;5111014;28;20695;-76
2022/06/10 07:36:37;;;;;;;5.15;4.50;;;;;;;25.19;62.49;93981.91;5112399;27;20181;-78
2022/06/10 07:39:04;;;;;;;4.78;4.38;;;;;;;25.20;62.31;93974.84;5110997;28;20185;-76
2022/06/10 07:44:20;;;;;;;5.03;4.63;;;;;;;25.28;61.94;93977.03;5110821;28;20662;-76
2022/06/10 07:46:47;;;;;;;4.50;4.10;;;;;;;25.31;62.08;93976.53;5110747;28;20189;-75
2022/06/10 07:49:16;;;;;;;4.90;4.50;;;;;;;25.33;61.71;93973.66;5110638;28;20228;-76
2022/06/10 07:51:42;;;;;;;4.72;4.32;;;;;;;25.37;61.92;93978.16;5110583;28;20184;-77
2022/06/10 07:54:09;;;;;;;4.75;4.07;;;;;;;25.43;61.86;93981.59;5111096;28;20266;-75
2022/06/10 07:56:37;;;;;;;4.68;4.20;;;;;;;25.48;61.79;93977.22;5110638;27;20196;-76
2022/06/10 07:59:04;;;;;;;5.07;4.47;;;;;;;25.51;61.37;93976.72;5110939;28;20267;-76
2022/06/10 08:01:30;;;;;;;4.80;4.40;;;;;;;25.57;61.51;93979.41;5111075;27;20224;-74
2022/06/10 08:03:57;;;;;;;4.43;4.10;;;;;;;25.67;61.27;93985.50;5108728;28;20193;-77
2022/06/10 08:06:28;;;;;;;4.43;4.03;;;;;;;25.77;61.42;93971.75;5110300;28;20540;-76
2022/06/10 08:08:55;;;;;;;4.70;4.20;;;;;;;25.83;61.60;93964.72;5108981;28;20191;-75
2022/06/10 08:11:23;;;;;;;4.90;4.20;;;;;;;25.99;61.67;93982.94;5110169;28;20564;-77
2022/06/10 08:13:50;;;;;;;5.55;4.55;;;;;;;26.12;61.51;93986.16;5109936;28;20662;-76
2022/06/10 08:16:18;;;;;;;4.55;4.00;;;;;;;26.22;61.22;93989.66;5109874;28;20200;-76
2022/06/10 08:18:45;;;;;;;7.15;4.82;;;;;;;26.31;60.83;93987.34;5109610;27;20204;-75
2022/06/10 08:24:07;;;;;;;6.32;4.25;;;;;;;26.48;60.06;93980.13;5035153;28;20195;-77
2022/06/10 08:26:34;;;;;;;4.72;4.32;;;;;;;26.57;60.30;93985.69;5048824;28;20221;-75
2022/06/10 08:29:03;;;;;;;6.13;4.38;;;;;;;26.66;60.09;93993.88;5047151;28;20194;-76
2022/06/10 08:31:30;;;;;;;4.93;4.45;;;;;;;26.74;59.66;94002.03;5046764;28;20195;-78
2022/06/10 08:33:58;;;;;;;4.97;4.57;;;;;;;26.81;59.04;93991.31;5047519;28;20582;-75
2022/06/10 08:36:26;;;;;;;5.10;4.57;;;;;;;26.89;58.92;94001.31;5050670;28;20188;-75
2022/06/10 08:38:52;;;;;;;5.53;4.43;;;;;;;26.96;58.95;94004.50;5048236;28;20218;-75
2022/06/10 08:41:33;;;;;;;4.72;4.32;;;;;;;27.05;58.80;94009.25;5046816;28;20223;-77
2022/06/10 08:44:09;;;;;;;4.40;4.00;;;;;;;27.12;58.38;94007.22;5048030;28;20179;-77
2022/06/10 08:47:03;;;;;;;3.88;3.50;;;;;;;27.18;57.88;94006.97;5046638;28;20197;-76
2022/06/10 08:49:47;;;;;;;3.65;3.35;;;;;;;27.27;57.77;94015.94;5044214;28;20305;-78
2022/06/10 08:52:22;;;;;;;3.70;3.50;;;;;;;27.35;57.36;94019.09;5046448;28;20205;-76
2022/06/10 08:55:01;;;;;;;4.72;3.83;;;;;;;27.38;56.76;94002.84;5045216;28;20202;-77
2022/06/10 08:57:34;;;;;;;4.07;3.67;;;;;;;27.46;56.42;94018.88;5044060;28;20178;-76
2022/06/10 09:00:02;;;;;;;3.30;3.05;;;;;;;27.53;55.83;94005.50;5075902;28;20193;-77
2022/06/10 09:02:32;;;;;;;3.53;3.22;;;;;;;27.62;55.95;94005.78;5107403;28;20212;-78
2022/06/10 09:05:06;;;;;;;4.18;3.53;;;;;;;27.79;55.22;94021.31;5107122;28;20197;-77
2022/06/10 09:07:39;;;;;;;3.85;3.55;;;;;;;27.85;55.28;94015.00;5106934;28;20193;-78
2022/06/10 09:10:16;;;;;;;3.67;3.30;;;;;;;27.97;54.94;94026.06;5110687;28;20891;-76
2022/06/10 09:13:10;;;;;;;4.00;3.60;;;;;;;28.06;54.49;94031.59;5109229;28;20177;-77
2022/06/10 09:15:43;;;;;;;3.85;3.55;;;;;;;28.12;54.67;94035.81;5105188;28;20719;-77
2022/06/10 09:18:15;;;;;;;4.32;3.80;;;;;;;28.16;54.47;94026.34;5108287;28;20592;-77
2022/06/10 09:20:52;;;;;;;4.35;3.20;;;;;;;28.22;53.85;94022.66;5106981;28;20706;-77
2022/06/10 09:23:30;;;;;;;3.67;3.38;;;;;;;28.29;53.36;94022.41;5106804;28;20587;-76
2022/06/10 09:26:06;;;;;;;5.25;3.85;;;;;;;28.36;52.70;94023.72;5107217;28;20283;-78
2022/06/10 09:28:35;;;;;;;5.88;3.60;;;;;;;28.44;53.08;94027.66;5105702;28;20663;-77
2022/06/10 09:31:09;;;;;;;3.75;3.45;;;;;;;28.47;52.33;94014.78;5109107;28;20197;-78
2022/06/10 09:33:43;;;;;;;4.22;3.83;;;;;;;28.48;52.15;94016.34;5112624;27;20187;-77
2022/06/10 09:36:15;;;;;;;4.65;4.25;;;;;;;28.49;52.45;94017.91;5113614;27;20188;-78
2022/06/10 09:38:51;;;;;;;4.75;4.18;;;;;;;28.48;52.74;94018.19;5113751;27;20196;-77
2022/06/10 09:41:27;;;;;;;4.90;4.40;;;;;;;28.42;52.89;94025.31;5113725;28;20612;-78
2022/06/10 09:44:08;;;;;;;5.47;4.97;;;;;;;28.30;52.85;94016.88;5112429;27;20988;-76
2022/06/10 09:46:58;;;;;;;6.78;4.90;;;;;;;28.24;53.23;94031.09;5112946;28;20205;-77
2022/06/10 09:49:45;;;;;;;7.95;4.88;;;;;;;28.12;52.94;94039.22;5110327;28;20221;-76
2022/06/10 09:52:18;;;;;;;6.43;4.35;;;;;;;27.99;52.74;94042.38;5112603;28;20208;-74
2022/06/10 09:55:01;;;;;;;4.68;3.80;;;;;;;27.83;52.99;94038.94;5112745;28;20632;-75
2022/06/10 09:58:00;;;;;;;4.55;3.95;;;;;;;27.67;52.99;94047.81;5112443;28;20593;-75
2022/06/10 10:00:35;;;;;;;5.88;3.80;;;;;;;27.52;53.33;94056.44;5111731;28;20193;-75
2022/06/10 10:03:17;;;;;;;4.30;3.90;;;;;;;27.37;53.84;94069.53;5113187;27;20200;-76
2022/06/10 10:06:03;;;;;;;5.55;4.60;;;;;;;27.20;54.07;94070.53;5111487;28;20593;-75
2022/06/10 10:08:38;;;;;;;6.35;4.53;;;;;;;27.05;54.73;94075.66;5112719;28;20684;-77
2022/06/10 10:11:15;;;;;;;6.32;4.40;;;;;;;26.92;55.21;94070.88;5112504;28;20211;-77
2022/06/10 10:13:58;;;;;;;5.80;4.47;;;;;;;26.79;55.45;94068.72;5114149;27;20184;-77
2022/06/10 10:16:42;;;;;;;6.30;4.35;;;;;;;26.63;56.10;94057.31;5112692;28;20192;-77
2022/06/10 10:19:38;;;;;;;4.57;4.05;;;;;;;26.55;56.80;94071.69;5110943;28;20189;-78
2022/06/10 10:22:23;;;;;;;4.57;3.85;;;;;;;26.47;56.79;94078.22;5110105;28;20307;-77
2022/06/10 10:24:52;;;;;;;5.20;4.10;;;;;;;26.36;57.17;94076.50;5112608;28;20605;-81
2022/06/10 10:27:23;;;;;;;8.05;3.92;;;;;;;26.31;57.56;94078.31;5114812;27;20208;-82
2022/06/10 10:29:55;;;;;;;5.45;4.57;;;;;;;26.22;57.85;94070.91;5112778;28;20185;-82
2022/06/10 10:32:27;;;;;;;5.03;4.00;;;;;;;26.15;58.03;94080.81;5112741;28;20188;-85
2022/06/10 10:35:03;;;;;;;5.65;4.10;;;;;;;26.09;58.17;94078.41;5115337;27;20199;-83
2022/06/10 10:37:33;;;;;;;4.15;3.78;;;;;;;26.00;58.40;94076.22;5111924;27;20188;-80
2022/06/10 10:40:05;;;;;;;4.32;3.92;;;;;;;25.79;58.95;94042.22;5114560;28;20185;-82
2022/06/10 10:42:36;;;;;;;7.25;4.10;;;;;;;25.99;58.61;94077.28;5111155;27;20580;-79
2022/06/10 10:45:08;;;;;;;4.28;3.75;;;;;;;26.01;58.94;94077.81;5110028;27;20548;-77
2022/06/10 10:47:39;;;;;;;5.28;3.92;;;;;;;26.05;59.14;94074.69;5111617;28;20185;-77
2022/06/10 10:50:19;;;;;;;4.30;3.90;;;;;;;26.05;59.23;94070.25;5109763;28;20211;-79
2022/06/10 10:52:46;;;;;;;5.10;4.10;;;;;;;26.08;58.95;94071.56;5114760;27;20185;-87
2022/06/10 10:55:27;;;;;;;5.28;3.90;;;;;;;25.93;58.96;94038.16;5112089;28;20197;-79
2022/06/10 10:58:14;;;;;;;6.13;4.00;;;;;;;26.14;58.78;94065.34;5111842;28;20197;-74
2022/06/10 11:00:43;;;;;;;4.95;4.40;;;;;;;26.17;58.90;94063.00;5106597;27;20208;-78
2022/06/10 11:03:25;;;;;;;3.70;3.40;;;;;;;26.15;58.93;94044.09;5110841;27;20200;-75
2022/06/10 11:05:53;;;;;;;3.92;3.55;;;;;;;26.23;58.92;94058.59;5109318;27;20226;-75
2022/06/10 11:08:30;;;;;;;3.35;3.15;;;;;;;26.21;59.48;94055.44;5111796;27;20189;-75
2022/06/10 11:11:04;;;;;;;4.38;3.92;;;;;;;26.28;59.08;94051.53;5108790;28;20188;-75
2022/06/10 11:13:50;;;;;;;3.55;3.25;;;;;;;26.34;59.43;94056.81;5109220;28;20204;-77
2022/06/10 11:16:30;;;;;;;4.25;3.47;;;;;;;26.38;59.96;94061.34;5108127;28;20200;-78
2022/06/10 11:19:07;;;;;;;4.63;3.70;;;;;;;26.46;60.20;94060.09;5108923;28;20193;-76
2022/06/10 11:21:50;;;;;;;4.78;3.28;;;;;;;26.51;59.79;94055.69;5108765;27;20220;-77
2022/06/10 11:24:19;;;;;;;3.92;3.63;;;;;;;26.59;60.27;94054.41;5107278;27;20193;-72
2022/06/10 11:26:51;;;;;;;7.53;3.88;;;;;;;26.67;59.92;94051.31;5108931;28;20881;-75
2022/06/10 11:29:17;;;;;;;5.40;4.25;;;;;;;26.75;59.77;94053.47;5109102;28;20208;-76
2022/06/10 11:31:49;;;;;;;5.75;3.63;;;;;;;26.82;59.50;94050.63;5109307;28;20197;-74
2022/06/10 11:34:21;;;;;;;4.50;3.30;;;;;;;26.92;59.84;94042.78;5108822;28;20197;-75
2022/06/10 11:36:50;;;;;;;5.18;3.75;;;;;;;27.02;59.91;94042.84;5108733;27;20200;-75
2022/06/10 11:39:21;;;;;;;5.00;3.80;;;;;;;27.13;59.79;94051.59;5109770;27;20203;-76
2022/06/10 11:42:07;;;;;;;4.20;3.67;;;;;;;27.24;59.36;94045.31;5108762;28;20228;-76
2022/06/10 11:44:41;;;;;;;5.32;4.07;;;;;;;27.34;58.98;94044.59;5108838;28;20189;-73
2022/06/10 11:47:18;;;;;;;4.05;3.65;;;;;;;27.44;59.10;94041.97;5111693;27;20196;-76
2022/06/10 11:49:52;;;;;;;4.10;3.70;;;;;;;27.53;58.74;94044.88;5112389;27;20180;-74
2022/06/10 11:52:27;;;;;;;4.03;3.72;;;;;;;27.58;58.98;94041.47;5109101;28;20645;-75
2022/06/10 11:55:05;;;;;;;3.92;3.63;;;;;;;27.64;58.67;94051.75;5111505;28;20218;-75
2022/06/10 12:00:32;;;;;;;4.70;3.92;;;;;;;27.78;58.47;94046.03;5113397;27;20310;-77
2022/06/10 12:03:12;;;;;;;3.85;3.42;;;;;;;27.85;57.82;94039.47;5110715;28;20231;-78
2022/06/10 12:05:50;;;;;;;4.53;3.80;;;;;;;27.94;57.17;94042.38;5111564;27;20199;-79
2022/06/10 12:08:28;;;;;;;6.95;3.78;;;;;;;27.98;56.89;94035.56;5110810;27;20192;-79
2022/06/10 12:10:58;;;;;;;3.95;3.63;;;;;;;28.09;57.08;94041.59;5107257;28;20207;-77